Andahuaylas, Peru
Current Conditions -  °F | °C
As of 7:00 AM on Friday 24 Oct 2014 (Local Time) from SPHO Reporting Station
Few Clouds Few Clouds  
Wind Chill: 61°   Ceiling: Unl
Heat Index: 61°   Visibility: 6mi
Dew Point: 50°   Wind: 2mph
Humidity: 68%   Direction: NA
Pressure: 30.39"   Gusts: NA
Location:  13.65°S, 73.4°W
Report Text: SPHO 241200Z VRB02KT 9999 FEW080 16/10 Q1029 RMK PP000
Loading
Personal Weather Stations






























Interactive Weather Map
Tropical Storm Tracking
New forecast layout! Learn more

10-Day Weather Forecast

Advertisements
Track Severe Weather on mobile